Time;durP1;ratioP1;P1;durP2;ratioP2;P2;SDS_P1;SDS_P2;PMS_P1;PMS_P2;Temp;Humidity;BMP_temperature;BMP_pressure;BME280_temperature;BME280_humidity;BME280_pressure;Samples;Min_cycle;Max_cycle;Signal;HPM_P1;HPM_P2
2023/08/07 00:01:49;;;;;;;3.97;2.53;;;14.70;99.90;;;;;;4180212;28;20232;-56
2023/08/07 00:04:09;;;;;;;5.35;1.60;;;14.70;99.90;;;;;;4180156;28;20048;-56
2023/08/07 00:06:29;;;;;;;2.20;1.35;;;14.80;99.90;;;;;;4173830;28;20051;-56
2023/08/07 00:08:49;;;;;;;2.00;1.58;;;14.80;99.90;;;;;;4180376;28;20107;-56
2023/08/07 00:11:09;;;;;;;1.63;1.20;;;14.70;99.90;;;;;;4179555;28;20053;-57
2023/08/07 00:13:29;;;;;;;4.90;1.50;;;14.60;99.90;;;;;;4181784;28;20107;-56
2023/08/07 00:15:49;;;;;;;2.22;1.92;;;14.50;99.90;;;;;;4181249;28;20059;-56
2023/08/07 00:18:09;;;;;;;2.05;1.20;;;14.40;99.90;;;;;;4179935;28;20252;-56
2023/08/07 00:20:29;;;;;;;1.33;1.23;;;14.40;99.90;;;;;;4178854;28;20233;-56
2023/08/07 00:22:49;;;;;;;5.15;1.35;;;14.40;99.90;;;;;;4184587;28;20048;-56
2023/08/07 00:25:08;;;;;;;2.25;1.73;;;14.40;99.90;;;;;;4178786;28;20099;-56
2023/08/07 00:27:29;;;;;;;1.92;1.52;;;14.40;99.90;;;;;;4177869;28;20051;-56
2023/08/07 00:29:48;;;;;;;1.33;1.10;;;14.40;99.90;;;;;;4181221;28;20041;-56
2023/08/07 00:32:08;;;;;;;3.05;1.55;;;14.50;99.90;;;;;;4180708;28;20423;-56
2023/08/07 00:34:29;;;;;;;2.35;1.42;;;14.40;99.90;;;;;;4179726;28;20079;-56
2023/08/07 00:36:49;;;;;;;2.20;1.45;;;14.50;99.90;;;;;;4180428;28;20202;-56
2023/08/07 00:39:10;;;;;;;7.00;2.03;;;14.40;99.90;;;;;;4182380;28;20079;-56
2023/08/07 00:41:30;;;;;;;2.40;1.50;;;14.40;99.90;;;;;;4180450;28;20075;-56
2023/08/07 00:43:50;;;;;;;2.92;1.45;;;14.40;99.90;;;;;;4176211;28;20277;-57
2023/08/07 00:46:11;;;;;;;4.18;1.85;;;14.20;99.90;;;;;;4181153;28;20144;-56
2023/08/07 00:48:31;;;;;;;4.53;1.50;;;14.10;99.90;;;;;;4182524;28;20390;-56
2023/08/07 00:50:51;;;;;;;7.35;2.75;;;14.00;99.90;;;;;;4175414;28;20108;-56
2023/08/07 00:53:11;;;;;;;2.30;1.38;;;13.90;99.90;;;;;;4179867;28;20045;-56
2023/08/07 00:55:32;;;;;;;4.60;2.20;;;13.90;99.90;;;;;;4182313;28;20404;-56
2023/08/07 00:57:52;;;;;;;3.72;2.25;;;13.90;99.90;;;;;;4186627;28;20056;-56
2023/08/07 01:00:14;;;;;;;3.60;1.77;;;13.90;99.90;;;;;;4176298;28;20103;-57
2023/08/07 01:02:34;;;;;;;1.63;1.45;;;14.00;99.90;;;;;;4179895;28;20052;-57
2023/08/07 01:04:44;;;;;;;3.83;1.63;;;14.00;99.90;;;;;;4225934;22;20048;-54
2023/08/07 01:07:05;;;;;;;2.30;1.55;;;14.10;99.90;;;;;;4203319;28;20125;-56
2023/08/07 01:09:25;;;;;;;7.65;2.20;;;14.10;99.90;;;;;;4203038;28;20108;-56
2023/08/07 01:11:56;;;;;;;2.30;1.98;;;14.00;99.90;;;;;;4201826;28;20362;-56
2023/08/07 01:14:39;;;;;;;4.40;2.05;;;13.90;99.90;;;;;;4200769;28;20051;-56
2023/08/07 01:17:05;;;;;;;2.15;1.95;;;13.90;99.90;;;;;;4198233;28;20052;-56
2023/08/07 01:19:27;;;;;;;2.97;1.90;;;13.80;99.90;;;;;;4198861;28;20120;-56
2023/08/07 01:21:49;;;;;;;2.05;1.95;;;13.80;99.90;;;;;;4198803;28;20051;-56
2023/08/07 01:24:09;;;;;;;1.73;1.63;;;13.80;99.90;;;;;;4194307;28;20040;-56
2023/08/07 01:26:31;;;;;;;2.13;1.80;;;13.80;99.90;;;;;;4205789;28;20094;-56
2023/08/07 01:29:26;;;;;;;2.17;1.92;;;13.80;99.90;;;;;;4200126;28;20096;-56
2023/08/07 01:31:49;;;;;;;5.32;1.98;;;13.80;99.90;;;;;;4198912;28;20039;-56
2023/08/07 01:34:13;;;;;;;3.88;1.55;;;13.80;99.90;;;;;;4199177;28;20047;-56
2023/08/07 01:36:34;;;;;;;2.47;1.70;;;13.90;99.90;;;;;;4203549;28;20097;-56
2023/08/07 01:38:56;;;;;;;3.88;2.03;;;13.90;99.90;;;;;;4198637;28;20405;-56
2023/08/07 01:41:16;;;;;;;5.45;2.85;;;13.90;99.90;;;;;;4196065;28;20441;-56
2023/08/07 01:43:36;;;;;;;3.38;2.35;;;13.80;99.90;;;;;;4195707;28;20078;-56
2023/08/07 01:45:58;;;;;;;2.38;1.98;;;13.70;99.90;;;;;;4189198;28;20044;-56
2023/08/07 01:48:18;;;;;;;3.65;2.05;;;13.70;99.90;;;;;;4193581;28;20052;-56
2023/08/07 01:50:39;;;;;;;2.35;1.50;;;13.80;99.90;;;;;;4194713;28;20064;-56
2023/08/07 01:53:00;;;;;;;1.92;1.70;;;13.60;99.90;;;;;;4196899;28;20043;-56
2023/08/07 01:55:22;;;;;;;2.72;1.50;;;13.70;99.90;;;;;;4196514;28;20366;-56
2023/08/07 01:57:42;;;;;;;1.88;1.77;;;13.70;99.90;;;;;;4195671;28;20075;-56
2023/08/07 02:00:03;;;;;;;2.35;1.95;;;13.60;99.90;;;;;;4194599;28;20047;-56
2023/08/07 02:02:23;;;;;;;2.22;1.95;;;13.60;99.90;;;;;;4196449;28;20235;-56
2023/08/07 02:04:43;;;;;;;3.63;2.60;;;13.50;99.90;;;;;;4182632;28;20205;-56
2023/08/07 02:07:03;;;;;;;1.95;1.85;;;13.60;99.90;;;;;;4196246;28;20091;-56
2023/08/07 02:09:23;;;;;;;3.72;1.83;;;13.50;99.90;;;;;;4198562;28;20248;-56
2023/08/07 02:11:44;;;;;;;2.20;1.65;;;13.50;99.90;;;;;;4203029;28;20085;-56
2023/08/07 02:14:03;;;;;;;3.83;2.13;;;13.50;99.90;;;;;;4197152;28;20048;-56
2023/08/07 02:16:23;;;;;;;2.17;1.90;;;13.40;99.90;;;;;;4195694;28;20330;-56
2023/08/07 02:18:42;;;;;;;3.88;2.40;;;13.40;99.90;;;;;;4198773;28;20048;-56
2023/08/07 02:21:02;;;;;;;1.80;1.63;;;13.40;99.90;;;;;;4196227;28;20096;-56
2023/08/07 02:23:22;;;;;;;1.63;1.52;;;13.20;99.90;;;;;;4194857;28;20055;-56
2023/08/07 02:25:42;;;;;;;2.53;1.70;;;13.10;99.90;;;;;;4197671;28;20051;-56
2023/08/07 02:28:02;;;;;;;3.33;1.88;;;13.20;99.90;;;;;;4199555;28;20373;-56
2023/08/07 02:30:22;;;;;;;2.45;1.60;;;13.00;99.90;;;;;;4199811;28;20047;-56
2023/08/07 02:32:44;;;;;;;2.92;1.80;;;13.10;99.90;;;;;;4196472;28;20320;-56
2023/08/07 02:35:04;;;;;;;4.53;1.70;;;13.10;99.90;;;;;;4199781;28;20082;-56
2023/08/07 02:37:24;;;;;;;2.25;2.05;;;13.10;99.90;;;;;;4199463;28;20062;-56
2023/08/07 02:39:44;;;;;;;4.05;1.98;;;13.00;99.90;;;;;;4197756;28;20138;-56
2023/08/07 02:42:04;;;;;;;4.40;1.92;;;12.90;99.90;;;;;;4198246;28;20067;-56
2023/08/07 02:44:24;;;;;;;3.33;2.38;;;13.00;99.90;;;;;;4201082;28;20121;-56
2023/08/07 02:46:44;;;;;;;3.38;1.70;;;13.00;99.90;;;;;;4196902;28;20381;-56
2023/08/07 02:49:04;;;;;;;3.25;2.45;;;13.00;99.90;;;;;;4196282;28;20044;-56
2023/08/07 02:51:24;;;;;;;3.33;2.30;;;12.90;99.90;;;;;;4197892;28;20396;-56
2023/08/07 02:53:44;;;;;;;2.47;2.28;;;12.70;99.90;;;;;;4196383;28;20043;-56
2023/08/07 02:56:04;;;;;;;1.70;1.60;;;12.70;99.90;;;;;;4201120;28;20112;-56
2023/08/07 02:58:24;;;;;;;3.17;2.65;;;12.70;99.90;;;;;;4198804;28;20099;-55
2023/08/07 03:00:43;;;;;;;1.55;1.45;;;12.70;99.90;;;;;;4196618;28;20048;-56
2023/08/07 03:03:03;;;;;;;2.97;2.78;;;12.70;99.90;;;;;;4199883;28;20251;-56
2023/08/07 03:05:23;;;;;;;3.65;2.10;;;12.60;99.90;;;;;;4198645;28;20083;-56
2023/08/07 03:07:43;;;;;;;4.60;2.75;;;12.70;99.90;;;;;;4197195;28;20055;-56
2023/08/07 03:10:04;;;;;;;1.67;1.63;;;12.60;99.90;;;;;;4198104;28;20374;-56
2023/08/07 03:12:24;;;;;;;3.28;2.42;;;12.40;99.90;;;;;;4197290;28;20097;-56
2023/08/07 03:14:44;;;;;;;3.67;2.10;;;12.50;99.90;;;;;;4190730;28;20047;-56
2023/08/07 03:17:04;;;;;;;3.22;2.65;;;12.60;99.90;;;;;;4197945;28;20289;-56
2023/08/07 03:19:24;;;;;;;6.13;2.40;;;12.60;99.90;;;;;;4201778;28;20047;-56
2023/08/07 03:21:44;;;;;;;2.72;2.53;;;12.50;99.90;;;;;;4197232;28;20048;-56
2023/08/07 03:24:04;;;;;;;2.55;2.35;;;12.50;99.90;;;;;;4195810;28;20104;-55
2023/08/07 03:26:24;;;;;;;2.92;2.25;;;12.30;99.90;;;;;;4197549;28;20059;-55
2023/08/07 03:28:46;;;;;;;5.70;2.78;;;12.40;99.90;;;;;;4198273;28;20051;-56
2023/08/07 03:31:07;;;;;;;5.18;2.88;;;12.50;99.90;;;;;;4197881;28;20112;-54
2023/08/07 03:33:27;;;;;;;3.53;2.35;;;12.40;99.90;;;;;;4198684;28;20365;-55
2023/08/07 03:35:47;;;;;;;3.08;1.40;;;12.20;99.90;;;;;;4197750;28;20044;-54
2023/08/07 03:38:06;;;;;;;3.45;2.65;;;12.40;99.90;;;;;;4195771;28;20048;-54
2023/08/07 03:40:26;;;;;;;3.50;1.92;;;12.40;99.90;;;;;;4195195;28;20052;-54
2023/08/07 03:42:46;;;;;;;3.28;2.33;;;12.30;99.90;;;;;;4199637;28;20043;-54
2023/08/07 03:45:07;;;;;;;2.67;2.42;;;12.20;99.90;;;;;;4195986;28;20047;-54
2023/08/07 03:47:27;;;;;;;2.67;2.47;;;12.20;99.90;;;;;;4195686;28;20052;-55
2023/08/07 03:49:47;;;;;;;1.80;1.70;;;12.10;99.90;;;;;;4196311;28;20087;-54
2023/08/07 03:52:08;;;;;;;2.35;2.00;;;11.90;99.90;;;;;;4196950;28;20039;-55
2023/08/07 03:54:28;;;;;;;2.78;2.15;;;11.70;99.90;;;;;;4194561;28;20079;-55
2023/08/07 03:56:49;;;;;;;2.95;2.15;;;11.60;99.90;;;;;;4194374;28;20051;-55
2023/08/07 03:59:09;;;;;;;2.28;2.10;;;11.60;99.90;;;;;;4199611;28;20098;-54
2023/08/07 04:01:29;;;;;;;3.45;3.30;;;11.80;99.90;;;;;;4195440;28;20044;-55
2023/08/07 04:03:49;;;;;;;3.17;2.70;;;11.80;99.90;;;;;;4198907;28;20043;-54
2023/08/07 04:06:10;;;;;;;3.47;2.53;;;11.70;99.90;;;;;;4197924;28;20067;-54
2023/08/07 04:08:30;;;;;;;5.47;2.75;;;11.50;99.90;;;;;;4198215;28;20099;-55
2023/08/07 04:11:00;;;;;;;2.35;2.15;;;11.30;99.90;;;;;;4186513;28;20061;-55
2023/08/07 04:13:20;;;;;;;3.88;3.67;;;11.50;99.90;;;;;;4194319;28;20098;-55
2023/08/07 04:15:41;;;;;;;5.20;2.60;;;11.70;99.90;;;;;;4198424;28;20413;-54
2023/08/07 04:18:00;;;;;;;5.07;3.22;;;11.60;99.90;;;;;;4193210;28;20244;-55
2023/08/07 04:20:20;;;;;;;3.05;2.95;;;11.60;99.90;;;;;;4192451;28;20039;-54
2023/08/07 04:22:41;;;;;;;4.22;2.80;;;11.60;99.90;;;;;;4195529;28;20043;-54
2023/08/07 04:25:01;;;;;;;4.15;2.80;;;11.50;99.90;;;;;;4196778;28;20286;-55
2023/08/07 04:27:20;;;;;;;3.40;2.42;;;11.50;99.90;;;;;;4197972;28;20043;-55
2023/08/07 04:29:40;;;;;;;2.88;2.65;;;11.50;99.90;;;;;;4198341;28;20094;-55
2023/08/07 04:32:00;;;;;;;3.60;3.28;;;11.70;99.90;;;;;;4198221;28;20051;-55
2023/08/07 04:34:20;;;;;;;3.05;2.85;;;11.70;99.90;;;;;;4196934;28;20062;-55
2023/08/07 04:36:40;;;;;;;2.92;2.58;;;11.70;99.90;;;;;;4196651;28;20060;-55
2023/08/07 04:39:01;;;;;;;3.47;3.15;;;11.70;99.90;;;;;;4195871;28;20054;-55
2023/08/07 04:41:21;;;;;;;2.67;2.58;;;11.80;99.90;;;;;;4195019;28;20083;-55
2023/08/07 04:43:42;;;;;;;6.82;2.47;;;11.70;99.90;;;;;;4200212;28;20086;-56
2023/08/07 04:46:03;;;;;;;3.90;3.45;;;11.70;99.90;;;;;;4194528;28;20366;-55
2023/08/07 04:48:25;;;;;;;9.18;2.60;;;11.80;99.90;;;;;;4196057;28;20087;-55
2023/08/07 04:50:45;;;;;;;4.80;3.58;;;11.90;99.90;;;;;;4196430;28;20047;-58
2023/08/07 04:53:05;;;;;;;3.85;2.40;;;11.90;99.90;;;;;;4196283;28;20085;-58
2023/08/07 04:55:25;;;;;;;3.58;2.95;;;11.90;99.90;;;;;;4196016;28;20113;-57
2023/08/07 04:57:46;;;;;;;4.82;4.53;;;11.90;99.90;;;;;;4196813;28;20365;-56
2023/08/07 05:00:07;;;;;;;2.42;2.17;;;11.90;99.90;;;;;;4196831;28;20108;-56
2023/08/07 05:02:27;;;;;;;2.10;1.90;;;11.90;99.90;;;;;;4196326;28;20402;-56
2023/08/07 05:04:47;;;;;;;3.80;3.15;;;12.00;99.90;;;;;;4194385;28;20167;-56
2023/08/07 05:07:08;;;;;;;4.93;2.33;;;11.80;99.90;;;;;;4199382;28;20038;-56
2023/08/07 05:09:28;;;;;;;2.92;2.75;;;11.70;99.90;;;;;;4192341;28;20052;-55
2023/08/07 05:11:48;;;;;;;2.35;2.15;;;11.70;99.90;;;;;;4193692;28;20236;-56
2023/08/07 05:14:08;;;;;;;5.07;2.78;;;11.70;99.90;;;;;;4196575;28;20400;-56
2023/08/07 05:16:28;;;;;;;4.53;2.70;;;11.70;99.90;;;;;;4195081;28;20147;-56
2023/08/07 05:18:48;;;;;;;3.35;2.65;;;11.60;99.90;;;;;;4192850;28;20162;-56
2023/08/07 05:21:10;;;;;;;3.90;3.60;;;11.60;99.90;;;;;;4195600;28;20043;-57
2023/08/07 05:23:30;;;;;;;10.90;3.15;;;11.60;99.90;;;;;;4196999;28;20118;-57
2023/08/07 05:25:50;;;;;;;3.03;2.92;;;11.60;99.90;;;;;;4202531;28;20461;-57
2023/08/07 05:28:09;;;;;;;3.92;3.72;;;11.60;99.90;;;;;;4196937;28;20040;-57
2023/08/07 05:30:29;;;;;;;4.13;3.70;;;11.60;99.90;;;;;;4196288;28;20091;-57
2023/08/07 05:32:49;;;;;;;3.47;3.20;;;11.60;99.90;;;;;;4198800;28;20082;-57
2023/08/07 05:35:09;;;;;;;3.28;3.08;;;11.70;99.90;;;;;;4195949;28;20099;-57
2023/08/07 05:37:31;;;;;;;4.68;3.05;;;11.80;99.90;;;;;;4195245;28;20108;-57
2023/08/07 05:39:51;;;;;;;4.10;3.25;;;11.90;99.90;;;;;;4196683;28;20082;-57
2023/08/07 05:42:12;;;;;;;5.15;3.13;;;11.90;99.90;;;;;;4198369;28;20099;-57
2023/08/07 05:44:32;;;;;;;3.13;2.78;;;12.00;99.90;;;;;;4192073;28;20076;-57
2023/08/07 05:46:52;;;;;;;3.13;2.83;;;12.10;99.90;;;;;;4196306;28;20116;-57
2023/08/07 05:49:12;;;;;;;4.13;3.88;;;12.10;99.90;;;;;;4197199;28;20079;-57
2023/08/07 05:51:32;;;;;;;5.65;3.63;;;12.20;99.90;;;;;;4196229;28;20094;-57
2023/08/07 05:53:52;;;;;;;5.68;2.90;;;12.20;99.90;;;;;;4196496;28;20048;-57
2023/08/07 05:56:12;;;;;;;3.05;2.95;;;12.30;99.90;;;;;;4197332;28;20370;-57
2023/08/07 05:58:32;;;;;;;2.78;2.67;;;12.40;99.90;;;;;;4197269;28;20051;-57
2023/08/07 06:00:52;;;;;;;3.70;2.97;;;12.50;99.90;;;;;;4195872;28;20327;-57
2023/08/07 06:03:12;;;;;;;5.80;2.80;;;12.60;99.90;;;;;;4194671;28;20047;-57
2023/08/07 06:05:34;;;;;;;3.78;3.40;;;12.70;99.90;;;;;;4195040;28;20063;-57
2023/08/07 06:07:54;;;;;;;5.00;3.08;;;12.90;99.90;;;;;;4194619;28;20047;-57
2023/08/07 06:10:14;;;;;;;3.28;2.63;;;12.90;99.90;;;;;;4191811;28;20082;-57
2023/08/07 06:12:34;;;;;;;5.53;2.67;;;13.20;99.90;;;;;;4194839;28;20080;-57
2023/08/07 06:14:54;;;;;;;3.15;2.95;;;13.20;99.90;;;;;;4200082;28;20102;-57
2023/08/07 06:17:13;;;;;;;3.78;2.35;;;13.20;99.90;;;;;;4194787;28;20051;-57
2023/08/07 06:19:33;;;;;;;2.97;2.78;;;13.30;99.90;;;;;;4195903;28;20231;-57
2023/08/07 06:21:54;;;;;;;2.95;1.58;;;13.50;99.90;;;;;;4196189;28;20259;-57
2023/08/07 06:24:14;;;;;;;2.15;2.03;;;13.60;99.90;;;;;;4196229;28;20047;-57
2023/08/07 06:26:34;;;;;;;2.25;1.73;;;13.70;99.90;;;;;;4197416;28;20048;-57
2023/08/07 06:28:53;;;;;;;6.05;2.83;;;13.80;99.90;;;;;;4196184;28;20244;-57
2023/08/07 06:31:13;;;;;;;4.72;1.88;;;13.80;99.90;;;;;;4194469;28;20063;-57
2023/08/07 06:33:34;;;;;;;3.83;1.98;;;13.90;99.90;;;;;;4196420;28;20087;-57
2023/08/07 06:35:53;;;;;;;10.15;2.33;;;13.90;99.90;;;;;;4192760;28;20078;-57
2023/08/07 06:38:13;;;;;;;3.63;2.25;;;14.00;99.90;;;;;;4197122;28;20052;-57
2023/08/07 06:40:35;;;;;;;6.60;2.40;;;14.10;99.90;;;;;;4195230;28;20048;-57
2023/08/07 06:42:55;;;;;;;3.63;1.60;;;14.30;99.90;;;;;;4193468;28;20108;-57
2023/08/07 06:45:15;;;;;;;5.28;1.73;;;14.20;99.90;;;;;;4194751;28;20067;-57
2023/08/07 06:47:34;;;;;;;3.20;2.08;;;14.30;99.90;;;;;;4195427;28;20052;-57
2023/08/07 06:49:54;;;;;;;5.07;1.85;;;14.40;99.90;;;;;;4195011;28;20146;-57
2023/08/07 06:52:14;;;;;;;2.85;2.00;;;14.40;99.90;;;;;;4194986;28;20124;-57
2023/08/07 06:54:34;;;;;;;2.33;2.13;;;14.60;99.90;;;;;;4197605;28;20050;-57
2023/08/07 06:56:54;;;;;;;4.10;1.90;;;14.70;99.90;;;;;;4199478;28;20066;-57
2023/08/07 06:59:14;;;;;;;2.50;2.05;;;15.00;99.90;;;;;;4198397;28;20052;-57
2023/08/07 07:01:34;;;;;;;4.55;2.33;;;15.00;99.90;;;;;;4197315;28;20060;-56
2023/08/07 07:03:54;;;;;;;2.08;1.58;;;15.00;99.90;;;;;;4199573;28;20296;-56
2023/08/07 07:06:14;;;;;;;3.28;2.13;;;14.90;99.90;;;;;;4201459;28;20052;-57
2023/08/07 07:08:34;;;;;;;1.63;1.42;;;14.90;99.90;;;;;;4197078;28;20080;-57
2023/08/07 07:10:53;;;;;;;1.50;1.25;;;15.10;99.90;;;;;;4199047;28;20040;-57
2023/08/07 07:13:13;;;;;;;11.50;3.22;;;15.20;99.90;;;;;;4202622;28;20067;-57
2023/08/07 07:15:33;;;;;;;3.80;1.60;;;15.40;99.90;;;;;;4192422;28;20243;-57
2023/08/07 07:17:53;;;;;;;4.63;1.80;;;15.40;99.90;;;;;;4196938;28;20095;-57
2023/08/07 07:20:13;;;;;;;2.67;1.75;;;15.40;99.90;;;;;;4198193;28;20044;-57
2023/08/07 07:22:33;;;;;;;6.93;2.05;;;15.40;99.90;;;;;;4198076;28;20102;-57
2023/08/07 07:24:53;;;;;;;1.65;1.40;;;15.60;99.90;;;;;;4198463;28;20047;-57
2023/08/07 07:27:13;;;;;;;1.38;1.35;;;15.60;99.90;;;;;;4196820;28;20093;-57
2023/08/07 07:29:32;;;;;;;2.45;1.80;;;15.70;99.90;;;;;;4196622;28;20140;-57
2023/08/07 07:31:53;;;;;;;3.10;1.35;;;15.90;99.90;;;;;;4190342;28;20379;-57
2023/08/07 07:34:14;;;;;;;1.30;1.13;;;16.10;99.90;;;;;;4195742;28;20048;-57
2023/08/07 07:36:33;;;;;;;1.70;1.25;;;16.50;99.90;;;;;;4196740;28;20312;-56
2023/08/07 07:38:54;;;;;;;9.30;2.05;;;16.90;99.90;;;;;;4200786;28;20090;-57
2023/08/07 07:41:17;;;;;;;2.00;1.35;;;16.90;99.90;;;;;;4196244;28;20078;-56
2023/08/07 07:43:37;;;;;;;3.95;1.48;;;17.00;99.90;;;;;;4196648;28;20062;-57
2023/08/07 07:45:57;;;;;;;6.07;1.23;;;16.90;99.90;;;;;;4198731;28;20283;-57
2023/08/07 07:48:17;;;;;;;6.70;1.90;;;17.00;99.90;;;;;;4197782;28;20040;-57
2023/08/07 07:50:38;;;;;;;4.20;1.10;;;17.30;99.90;;;;;;4198882;28;20055;-57
2023/08/07 07:52:57;;;;;;;2.15;1.13;;;17.60;99.90;;;;;;4197714;28;20675;-56
2023/08/07 07:55:18;;;;;;;1.70;1.00;;;17.70;99.90;;;;;;4198604;28;20446;-56
2023/08/07 07:57:37;;;;;;;2.75;1.40;;;17.70;99.90;;;;;;4199685;28;20397;-56
2023/08/07 07:59:57;;;;;;;4.20;2.38;;;18.00;99.90;;;;;;4194309;28;20059;-56
2023/08/07 08:02:17;;;;;;;3.15;1.20;;;17.90;99.90;;;;;;4197576;28;20071;-56
2023/08/07 08:04:37;;;;;;;2.92;1.25;;;18.10;99.90;;;;;;4198094;28;20248;-56
2023/08/07 08:06:57;;;;;;;3.42;1.00;;;18.50;99.90;;;;;;4193767;28;20371;-56
2023/08/07 08:09:17;;;;;;;2.00;1.55;;;18.60;99.90;;;;;;4196214;28;20108;-57
2023/08/07 08:11:37;;;;;;;2.90;1.00;;;18.70;99.90;;;;;;4195124;28;20083;-56
2023/08/07 08:13:57;;;;;;;2.38;1.27;;;19.10;99.90;;;;;;4195790;28;20051;-56
2023/08/07 08:16:16;;;;;;;1.25;0.90;;;19.60;99.90;;;;;;4195253;28;20231;-57
2023/08/07 08:18:36;;;;;;;2.15;1.10;;;20.00;99.90;;;;;;4196970;28;20047;-57
2023/08/07 08:20:55;;;;;;;1.60;1.13;;;19.90;99.90;;;;;;4197494;28;20052;-57
2023/08/07 08:23:15;;;;;;;2.08;1.20;;;20.20;99.90;;;;;;4194736;28;20063;-57
2023/08/07 08:25:35;;;;;;;4.00;1.00;;;20.30;99.90;;;;;;4196406;28;20056;-57
2023/08/07 08:27:55;;;;;;;3.65;1.00;;;20.40;99.90;;;;;;4195697;28;20239;-57
2023/08/07 08:30:15;;;;;;;3.13;0.90;;;20.50;99.90;;;;;;4189786;28;20234;-56
2023/08/07 08:32:35;;;;;;;4.43;0.93;;;20.70;99.90;;;;;;4194197;28;20071;-57
2023/08/07 08:34:55;;;;;;;9.15;2.10;;;21.30;99.90;;;;;;4196304;28;20117;-57
2023/08/07 08:37:15;;;;;;;2.97;0.90;;;21.30;99.90;;;;;;4202027;28;20071;-57
2023/08/07 08:39:35;;;;;;;1.58;0.88;;;21.20;99.90;;;;;;4192144;28;20425;-57
2023/08/07 08:41:55;;;;;;;2.65;1.10;;;21.40;99.90;;;;;;4196140;28;20090;-57
2023/08/07 08:44:19;;;;;;;3.08;1.13;;;21.40;99.90;;;;;;4198149;28;20047;-57
2023/08/07 08:46:42;;;;;;;4.15;1.02;;;21.70;99.90;;;;;;4197095;28;20051;-57
2023/08/07 08:49:04;;;;;;;2.33;0.80;;;21.80;99.90;;;;;;4198397;28;20059;-57
2023/08/07 08:51:25;;;;;;;1.83;0.90;;;22.00;99.90;;;;;;4195231;28;20138;-56
2023/08/07 08:53:49;;;;;;;1.95;0.98;;;22.30;98.50;;;;;;4196975;28;20397;-56
2023/08/07 08:56:09;;;;;;;0.70;0.70;;;22.10;96.90;;;;;;4196510;28;20074;-56
2023/08/07 08:58:30;;;;;;;0.70;0.70;;;22.40;97.90;;;;;;4195587;28;20419;-56
2023/08/07 09:00:50;;;;;;;3.33;0.70;;;23.10;96.30;;;;;;4197300;28;20114;-57
2023/08/07 09:03:10;;;;;;;1.08;0.70;;;23.10;96.50;;;;;;4194105;28;20080;-56
2023/08/07 09:05:31;;;;;;;2.45;0.70;;;23.40;94.80;;;;;;4193198;28;20082;-56
2023/08/07 09:07:52;;;;;;;0.73;0.73;;;23.40;94.20;;;;;;4195450;28;20359;-57
2023/08/07 09:10:12;;;;;;;0.65;0.60;;;23.40;96.40;;;;;;4200139;28;20047;-57
2023/08/07 09:12:33;;;;;;;0.70;0.70;;;23.70;95.70;;;;;;4195066;28;20122;-57
2023/08/07 09:14:58;;;;;;;1.42;0.52;;;24.00;93.90;;;;;;4196050;28;20048;-57
2023/08/07 09:17:19;;;;;;;1.73;0.65;;;24.00;95.20;;;;;;4196106;28;20071;-57
2023/08/07 09:19:39;;;;;;;0.60;0.60;;;24.10;91.70;;;;;;4197681;28;20076;-57
2023/08/07 09:22:00;;;;;;;0.75;0.60;;;24.00;92.60;;;;;;4196732;28;20179;-57
2023/08/07 09:24:22;;;;;;;1.63;0.60;;;23.90;92.00;;;;;;4195003;28;20095;-56
2023/08/07 09:26:43;;;;;;;0.60;0.60;;;24.10;93.50;;;;;;4196404;28;20087;-57
2023/08/07 09:29:03;;;;;;;0.50;0.50;;;23.90;93.20;;;;;;4198571;28;20274;-57
2023/08/07 09:31:26;;;;;;;1.05;0.60;;;24.20;91.70;;;;;;4193670;28;20100;-57
2023/08/07 09:33:48;;;;;;;0.93;0.60;;;24.50;93.70;;;;;;4197007;28;20078;-57
2023/08/07 09:36:08;;;;;;;0.82;0.50;;;24.60;91.90;;;;;;4194778;28;20043;-57
2023/08/07 09:38:32;;;;;;;0.95;0.70;;;25.00;91.80;;;;;;4195737;28;20086;-56
2023/08/07 09:40:52;;;;;;;0.60;0.60;;;24.70;92.30;;;;;;4194540;28;20087;-57
2023/08/07 09:43:21;;;;;;;1.17;0.50;;;24.80;92.50;;;;;;4197251;28;20079;-57
2023/08/07 09:45:42;;;;;;;1.00;0.50;;;24.40;91.50;;;;;;4196979;28;20044;-57
2023/08/07 09:48:06;;;;;;;0.50;0.50;;;24.90;90.60;;;;;;4197373;28;20048;-57
2023/08/07 09:50:26;;;;;;;0.73;0.50;;;25.50;89.20;;;;;;4196647;28;20390;-57
2023/08/07 09:52:49;;;;;;;0.50;0.50;;;25.90;91.10;;;;;;4198195;28;20071;-57
2023/08/07 09:55:09;;;;;;;0.50;0.50;;;25.80;83.10;;;;;;4193102;28;20087;-57
2023/08/07 09:57:30;;;;;;;0.55;0.50;;;25.70;80.50;;;;;;4194296;28;20051;-57
2023/08/07 09:59:51;;;;;;;0.50;0.50;;;25.80;84.00;;;;;;4198781;28;20048;-57
2023/08/07 10:02:11;;;;;;;0.50;0.50;;;25.90;84.70;;;;;;4199362;28;20048;-57
2023/08/07 10:04:31;;;;;;;0.52;0.52;;;25.90;86.40;;;;;;4194267;28;20114;-57
2023/08/07 10:06:51;;;;;;;0.73;0.60;;;26.10;84.50;;;;;;4197377;28;20048;-57
2023/08/07 10:09:11;;;;;;;1.48;0.50;;;26.40;81.70;;;;;;4198545;28;20108;-57
2023/08/07 10:11:31;;;;;;;0.50;0.50;;;25.60;76.80;;;;;;4194988;28;20040;-57
2023/08/07 10:13:52;;;;;;;0.40;0.40;;;25.40;75.70;;;;;;4195818;28;20083;-57
2023/08/07 10:16:12;;;;;;;0.77;0.77;;;25.90;83.50;;;;;;4197257;28;20097;-57
2023/08/07 10:18:33;;;;;;;0.40;0.40;;;26.10;71.70;;;;;;4196130;28;20094;-57
2023/08/07 10:20:54;;;;;;;0.70;0.50;;;26.50;79.70;;;;;;4195778;28;20082;-57
2023/08/07 10:23:17;;;;;;;0.50;0.50;;;26.90;76.60;;;;;;4194731;28;20047;-57
2023/08/07 10:25:41;;;;;;;0.50;0.50;;;27.00;72.60;;;;;;4196019;28;20361;-57
2023/08/07 10:28:03;;;;;;;1.40;0.50;;;26.80;75.40;;;;;;4194024;28;20163;-58
2023/08/07 10:30:25;;;;;;;0.47;0.47;;;26.90;73.50;;;;;;4195062;28;20123;-58
2023/08/07 10:32:46;;;;;;;0.50;0.50;;;27.00;71.00;;;;;;4197996;28;20278;-58
2023/08/07 10:35:06;;;;;;;0.40;0.40;;;26.90;67.80;;;;;;4204194;28;20052;-58
2023/08/07 10:37:42;;;;;;;0.50;0.50;;;27.20;68.90;;;;;;4198340;28;20048;-57
2023/08/07 10:40:07;;;;;;;1.08;0.50;;;27.40;71.30;;;;;;4198872;28;20067;-57
2023/08/07 10:42:27;;;;;;;0.50;0.50;;;27.40;72.10;;;;;;4198318;28;20263;-57
2023/08/07 10:44:51;;;;;;;1.00;0.52;;;27.50;75.80;;;;;;4197347;28;20052;-57
2023/08/07 10:47:11;;;;;;;1.52;0.50;;;26.70;81.10;;;;;;4197191;28;20060;-57
2023/08/07 10:49:32;;;;;;;1.95;0.60;;;26.70;81.90;;;;;;4198807;28;20074;-57
2023/08/07 10:51:52;;;;;;;0.52;0.50;;;26.70;80.00;;;;;;4196746;28;20056;-57
2023/08/07 10:54:13;;;;;;;1.05;0.50;;;26.80;80.80;;;;;;4193124;28;20087;-57
2023/08/07 10:56:35;;;;;;;1.85;0.50;;;26.80;82.10;;;;;;4196725;28;20036;-57
2023/08/07 10:58:55;;;;;;;1.85;0.75;;;27.00;81.50;;;;;;4202050;28;20116;-57
2023/08/07 11:01:21;;;;;;;0.60;0.50;;;26.60;79.90;;;;;;4197846;28;20055;-57
2023/08/07 11:03:42;;;;;;;0.50;0.50;;;26.40;81.70;;;;;;4196970;28;20091;-57
2023/08/07 11:06:03;;;;;;;0.40;0.40;;;27.40;80.80;;;;;;4198171;28;20083;-57
2023/08/07 11:08:23;;;;;;;0.40;0.40;;;28.00;76.60;;;;;;4197475;28;20102;-57
2023/08/07 11:10:43;;;;;;;0.40;0.40;;;27.70;73.20;;;;;;4197972;28;20367;-58
2023/08/07 11:13:03;;;;;;;0.47;0.40;;;27.70;69.30;;;;;;4189375;28;20052;-58
2023/08/07 11:15:23;;;;;;;1.17;0.40;;;27.80;68.30;;;;;;4199345;28;20323;-57
2023/08/07 11:17:46;;;;;;;0.40;0.40;;;28.00;67.70;;;;;;4201240;28;20280;-58
2023/08/07 11:20:06;;;;;;;0.40;0.40;;;28.10;62.50;;;;;;4185028;28;20048;-57
2023/08/07 11:22:26;;;;;;;1.23;0.40;;;27.70;59.40;;;;;;4199287;28;20150;-57
2023/08/07 11:24:50;;;;;;;0.40;0.40;;;27.50;58.80;;;;;;4199415;28;20236;-57
2023/08/07 11:27:10;;;;;;;0.38;0.38;;;27.60;61.00;;;;;;4198861;28;20051;-57
2023/08/07 11:29:30;;;;;;;0.32;0.32;;;27.80;59.30;;;;;;4194615;28;20047;-57
2023/08/07 11:31:51;;;;;;;0.40;0.40;;;28.30;61.00;;;;;;4200683;28;20043;-57
2023/08/07 11:34:11;;;;;;;0.40;0.40;;;28.60;67.20;;;;;;4203437;28;20051;-57
2023/08/07 11:36:32;;;;;;;0.40;0.40;;;29.00;62.90;;;;;;4193451;28;20071;-57
2023/08/07 11:38:52;;;;;;;1.42;0.40;;;28.40;59.80;;;;;;4197325;28;20047;-57
2023/08/07 11:41:14;;;;;;;0.47;0.40;;;27.80;61.00;;;;;;4198169;28;20080;-57
2023/08/07 11:43:34;;;;;;;0.40;0.40;;;27.30;61.20;;;;;;4199271;28;20231;-57
2023/08/07 11:45:56;;;;;;;0.47;0.47;;;27.10;60.50;;;;;;4197648;28;20078;-57
2023/08/07 11:48:16;;;;;;;0.45;0.45;;;26.80;61.40;;;;;;4197592;28;20052;-57
2023/08/07 11:50:37;;;;;;;0.47;0.47;;;26.50;58.90;;;;;;4184919;28;20052;-57
2023/08/07 11:53:00;;;;;;;0.40;0.40;;;26.10;59.80;;;;;;4196412;28;20048;-57
2023/08/07 11:55:20;;;;;;;0.77;0.40;;;26.40;57.30;;;;;;4197423;28;20063;-57
2023/08/07 11:57:42;;;;;;;0.50;0.50;;;26.40;57.50;;;;;;4197420;28;20080;-57
2023/08/07 12:00:09;;;;;;;0.40;0.40;;;26.30;57.40;;;;;;4194925;28;20143;-57
2023/08/07 12:02:29;;;;;;;0.40;0.40;;;26.40;57.00;;;;;;4197103;28;20135;-57
2023/08/07 12:04:49;;;;;;;0.40;0.40;;;26.40;56.70;;;;;;4195991;28;20063;-57
2023/08/07 12:07:11;;;;;;;0.50;0.50;;;26.60;57.30;;;;;;4198411;28;20091;-57
2023/08/07 12:09:30;;;;;;;0.40;0.40;;;26.70;58.50;;;;;;4198459;28;20051;-57
2023/08/07 12:11:56;;;;;;;0.50;0.50;;;26.80;59.50;;;;;;4196814;28;20577;-58